sensor_id;sensor_type;location;lat;lon;timestamp;pressure;altitude;pressure_sealevel;temperature;humidity
30873;BME280;17579;42.690;2.586;2023-05-23T00:00:49;97079.81;;;17.78;56.48
30873;BME280;17579;42.690;2.586;2023-05-23T00:03:19;97071.19;;;17.76;56.74
30873;BME280;17579;42.690;2.586;2023-05-23T00:06:00;97073.84;;;17.76;56.43
30873;BME280;17579;42.690;2.586;2023-05-23T00:08:29;97069.78;;;17.80;56.53
30873;BME280;17579;42.690;2.586;2023-05-23T00:11:02;97066.91;;;17.82;56.64
30873;BME280;17579;42.690;2.586;2023-05-23T00:13:50;97069.78;;;17.80;56.56
30873;BME280;17579;42.690;2.586;2023-05-23T00:16:27;97070.63;;;17.88;56.19
30873;BME280;17579;42.690;2.586;2023-05-23T00:19:18;97065.91;;;17.90;56.63
30873;BME280;17579;42.690;2.586;2023-05-23T00:21:46;97058.56;;;17.92;56.14
30873;BME280;17579;42.690;2.586;2023-05-23T00:24:22;97062.28;;;17.97;56.53
30873;BME280;17579;42.690;2.586;2023-05-23T00:26:50;97062.91;;;17.99;56.50
30873;BME280;17579;42.690;2.586;2023-05-23T00:29:16;97058.00;;;18.03;56.45
30873;BME280;17579;42.690;2.586;2023-05-23T00:31:46;97056.16;;;18.04;56.43
30873;BME280;17579;42.690;2.586;2023-05-23T00:34:15;97057.59;;;18.06;56.14
30873;BME280;17579;42.690;2.586;2023-05-23T00:36:42;97057.22;;;18.09;55.97
30873;BME280;17579;42.690;2.586;2023-05-23T00:39:08;97048.38;;;18.09;56.05
30873;BME280;17579;42.690;2.586;2023-05-23T00:41:41;97048.97;;;18.11;55.74
30873;BME280;17579;42.690;2.586;2023-05-23T00:44:07;97035.78;;;18.09;55.78
30873;BME280;17579;42.690;2.586;2023-05-23T00:46:34;97032.47;;;18.07;56.08
30873;BME280;17579;42.690;2.586;2023-05-23T00:49:09;97032.47;;;18.07;56.08
30873;BME280;17579;42.690;2.586;2023-05-23T00:51:34;97027.53;;;18.04;56.14
30873;BME280;17579;42.690;2.586;2023-05-23T00:54:08;97035.75;;;18.03;56.28
30873;BME280;17579;42.690;2.586;2023-05-23T00:56:35;97034.13;;;18.02;55.96
30873;BME280;17579;42.690;2.586;2023-05-23T00:59:01;97033.47;;;17.99;56.20
30873;BME280;17579;42.690;2.586;2023-05-23T01:01:34;97030.00;;;17.99;56.61
30873;BME280;17579;42.690;2.586;2023-05-23T01:04:06;97019.91;;;18.01;56.57
30873;BME280;17579;42.690;2.586;2023-05-23T01:06:37;97022.34;;;17.96;56.13
30873;BME280;17579;42.690;2.586;2023-05-23T01:09:05;97007.13;;;17.96;56.77
30873;BME280;17579;42.690;2.586;2023-05-23T01:11:42;97018.22;;;17.93;56.71
30873;BME280;17579;42.690;2.586;2023-05-23T01:17:09;96998.47;;;17.94;56.68
30873;BME280;17579;42.690;2.586;2023-05-23T01:22:37;96996.16;;;17.91;56.70
30873;BME280;17579;42.690;2.586;2023-05-23T01:28:16;96991.69;;;17.98;56.28
30873;BME280;17579;42.690;2.586;2023-05-23T01:30:47;96999.50;;;18.00;56.78
30873;BME280;17579;42.690;2.586;2023-05-23T01:33:17;96999.34;;;18.02;56.60
30873;BME280;17579;42.690;2.586;2023-05-23T01:35:50;96997.47;;;18.02;56.63
30873;BME280;17579;42.690;2.586;2023-05-23T01:38:19;96996.25;;;18.05;56.58
30873;BME280;17579;42.690;2.586;2023-05-23T01:40:47;96998.09;;;18.04;56.93
30873;BME280;17579;42.690;2.586;2023-05-23T01:43:33;96995.00;;;18.07;56.64
30873;BME280;17579;42.690;2.586;2023-05-23T01:45:59;96983.28;;;18.08;56.79
30873;BME280;17579;42.690;2.586;2023-05-23T01:48:33;96989.47;;;18.09;56.60
30873;BME280;17579;42.690;2.586;2023-05-23T01:51:05;96985.56;;;18.11;56.84
30873;BME280;17579;42.690;2.586;2023-05-23T01:53:59;96980.19;;;18.05;56.58
30873;BME280;17579;42.690;2.586;2023-05-23T01:56:32;96973.44;;;18.15;56.21
30873;BME280;17579;42.690;2.586;2023-05-23T01:59:14;96979.00;;;18.14;56.51
30873;BME280;17579;42.690;2.586;2023-05-23T02:02:00;96977.16;;;18.21;56.18
30873;BME280;17579;42.690;2.586;2023-05-23T02:04:27;96979.22;;;18.26;55.90
30873;BME280;17579;42.690;2.586;2023-05-23T02:06:57;96988.91;;;18.27;55.68
30873;BME280;17579;42.690;2.586;2023-05-23T02:10:03;96986.03;;;18.28;56.25
30873;BME280;17579;42.690;2.586;2023-05-23T02:12:29;96990.00;;;18.39;55.98
30873;BME280;17579;42.690;2.586;2023-05-23T02:15:01;96989.41;;;18.44;56.13
30873;BME280;17579;42.690;2.586;2023-05-23T02:17:29;96981.16;;;18.45;55.62
30873;BME280;17579;42.690;2.586;2023-05-23T02:19:57;96979.09;;;18.47;55.91
30873;BME280;17579;42.690;2.586;2023-05-23T02:22:23;96978.91;;;18.49;55.86
30873;BME280;17579;42.690;2.586;2023-05-23T02:24:51;96970.03;;;18.48;55.57
30873;BME280;17579;42.690;2.586;2023-05-23T02:27:20;96976.03;;;18.50;55.92
30873;BME280;17579;42.690;2.586;2023-05-23T02:29:49;96975.19;;;18.50;55.92
30873;BME280;17579;42.690;2.586;2023-05-23T02:32:19;96970.88;;;18.56;55.56
30873;BME280;17579;42.690;2.586;2023-05-23T02:34:47;96970.88;;;18.56;55.87
30873;BME280;17579;42.690;2.586;2023-05-23T02:37:16;96976.47;;;18.61;55.44
30873;BME280;17579;42.690;2.586;2023-05-23T02:39:46;96970.91;;;18.62;55.46
30873;BME280;17579;42.690;2.586;2023-05-23T02:42:35;96970.28;;;18.67;55.38
30873;BME280;17579;42.690;2.586;2023-05-23T02:45:27;96965.94;;;18.59;55.75
30873;BME280;17579;42.690;2.586;2023-05-23T02:47:55;96968.84;;;18.64;55.25
30873;BME280;17579;42.690;2.586;2023-05-23T02:50:26;96969.44;;;18.60;55.08
30873;BME280;17579;42.690;2.586;2023-05-23T02:52:54;96970.25;;;18.60;55.08
30873;BME280;17579;42.690;2.586;2023-05-23T02:55:20;96970.91;;;18.62;55.43
30873;BME280;17579;42.690;2.586;2023-05-23T02:57:54;96969.88;;;18.63;55.70
30873;BME280;17579;42.690;2.586;2023-05-23T03:00:34;96976.25;;;18.62;55.69
30873;BME280;17579;42.690;2.586;2023-05-23T03:03:03;96963.88;;;18.61;55.18
30873;BME280;17579;42.690;2.586;2023-05-23T03:05:31;96963.28;;;18.59;55.26
30873;BME280;17579;42.690;2.586;2023-05-23T03:07:57;96970.25;;;18.53;55.26
30873;BME280;17579;42.690;2.586;2023-05-23T03:10:24;96969.63;;;18.51;55.47
30873;BME280;17579;42.690;2.586;2023-05-23T03:12:52;96971.91;;;18.48;55.86
30873;BME280;17579;42.690;2.586;2023-05-23T03:15:21;96966.53;;;18.48;55.63
30873;BME280;17579;42.690;2.586;2023-05-23T03:17:52;96966.53;;;18.48;55.85
30873;BME280;17579;42.690;2.586;2023-05-23T03:20:18;96972.50;;;18.50;55.59
30873;BME280;17579;42.690;2.586;2023-05-23T03:22:51;96969.84;;;18.50;55.70
30873;BME280;17579;42.690;2.586;2023-05-23T03:25:24;96968.38;;;18.47;55.66
30873;BME280;17579;42.690;2.586;2023-05-23T03:31:12;96967.59;;;18.53;56.00
30873;BME280;17579;42.690;2.586;2023-05-23T03:33:41;96972.75;;;18.55;55.71
30873;BME280;17579;42.690;2.586;2023-05-23T03:36:07;96968.41;;;18.54;55.58
30873;BME280;17579;42.690;2.586;2023-05-23T03:38:35;96966.13;;;18.51;55.78
30873;BME280;17579;42.690;2.586;2023-05-23T03:41:13;96964.06;;;18.53;55.35
30873;BME280;17579;42.690;2.586;2023-05-23T03:43:39;96966.75;;;18.53;55.78
30873;BME280;17579;42.690;2.586;2023-05-23T03:46:09;96968.59;;;18.52;55.56
30873;BME280;17579;42.690;2.586;2023-05-23T03:48:39;96966.38;;;18.56;55.89
30873;BME280;17579;42.690;2.586;2023-05-23T03:51:21;96972.75;;;18.55;55.57
30873;BME280;17579;42.690;2.586;2023-05-23T03:53:48;96971.09;;;18.61;55.59
30873;BME280;17579;42.690;2.586;2023-05-23T03:56:14;96970.66;;;18.57;55.48
30873;BME280;17579;42.690;2.586;2023-05-23T03:58:40;96964.72;;;18.55;55.58
30873;BME280;17579;42.690;2.586;2023-05-23T04:01:22;96969.84;;;18.57;55.94
30873;BME280;17579;42.690;2.586;2023-05-23T04:03:49;96971.91;;;18.61;55.38
30873;BME280;17579;42.690;2.586;2023-05-23T04:06:20;96973.78;;;18.61;55.60
30873;BME280;17579;42.690;2.586;2023-05-23T04:08:48;96971.50;;;18.64;55.67
30873;BME280;17579;42.690;2.586;2023-05-23T04:11:22;96970.25;;;18.60;55.90
30873;BME280;17579;42.690;2.586;2023-05-23T04:14:12;96969.69;;;18.65;56.67
30873;BME280;17579;42.690;2.586;2023-05-23T04:16:41;96964.69;;;18.62;56.55
30873;BME280;17579;42.690;2.586;2023-05-23T04:19:19;96963.69;;;18.63;56.67
30873;BME280;17579;42.690;2.586;2023-05-23T04:22:11;96963.47;;;18.58;56.98
30873;BME280;17579;42.690;2.586;2023-05-23T04:24:37;96968.63;;;18.66;57.79
30873;BME280;17579;42.690;2.586;2023-05-23T04:27:05;96953.97;;;18.62;57.42
30873;BME280;17579;42.690;2.586;2023-05-23T04:29:40;96964.09;;;18.60;57.74
30873;BME280;17579;42.690;2.586;2023-05-23T04:32:09;96960.78;;;18.64;58.13
30873;BME280;17579;42.690;2.586;2023-05-23T04:34:35;96968.00;;;18.64;58.27
30873;BME280;17579;42.690;2.586;2023-05-23T04:37:02;96971.50;;;18.64;58.34
30873;BME280;17579;42.690;2.586;2023-05-23T04:39:41;96974.81;;;18.66;58.73
30873;BME280;17579;42.690;2.586;2023-05-23T04:42:14;96978.13;;;18.68;58.74
30873;BME280;17579;42.690;2.586;2023-05-23T04:44:49;96983.06;;;18.72;58.62
30873;BME280;17579;42.690;2.586;2023-05-23T04:47:23;96988.00;;;18.75;58.81
30873;BME280;17579;42.690;2.586;2023-05-23T04:50:02;96987.59;;;18.71;58.69
30873;BME280;17579;42.690;2.586;2023-05-23T04:52:35;96991.94;;;18.79;58.47
30873;BME280;17579;42.690;2.586;2023-05-23T04:55:01;96993.59;;;18.80;58.72
30873;BME280;17579;42.690;2.586;2023-05-23T04:57:34;96999.38;;;18.77;58.77
30873;BME280;17579;42.690;2.586;2023-05-23T05:00:07;97000.19;;;18.84;58.62
30873;BME280;17579;42.690;2.586;2023-05-23T05:05:23;96994.88;;;18.91;58.37
30873;BME280;17579;42.690;2.586;2023-05-23T05:07:52;97004.16;;;18.88;58.52
30873;BME280;17579;42.690;2.586;2023-05-23T05:10:23;97001.66;;;18.93;58.08
30873;BME280;17579;42.690;2.586;2023-05-23T05:12:48;97000.66;;;18.94;58.26
30873;BME280;17579;42.690;2.586;2023-05-23T05:15:18;97003.34;;;18.94;58.14
30873;BME280;17579;42.690;2.586;2023-05-23T05:18:25;96997.34;;;18.99;58.59
30873;BME280;17579;42.690;2.586;2023-05-23T05:20:55;96999.81;;;19.00;58.18
30873;BME280;17579;42.690;2.586;2023-05-23T05:23:30;97001.09;;;18.98;58.33
30873;BME280;17579;42.690;2.586;2023-05-23T05:26:10;96993.66;;;19.00;58.64
30873;BME280;17579;42.690;2.586;2023-05-23T05:28:56;96996.72;;;19.03;58.17
30873;BME280;17579;42.690;2.586;2023-05-23T05:31:26;96999.81;;;19.00;58.38
30873;BME280;17579;42.690;2.586;2023-05-23T05:33:54;97003.97;;;19.03;58.35
30873;BME280;17579;42.690;2.586;2023-05-23T05:36:24;97006.84;;;19.01;58.35
30873;BME280;17579;42.690;2.586;2023-05-23T05:38:50;97004.59;;;19.05;58.31
30873;BME280;17579;42.690;2.586;2023-05-23T05:41:27;97007.88;;;19.07;58.50
30873;BME280;17579;42.690;2.586;2023-05-23T05:43:55;97007.66;;;19.09;58.39
30873;BME280;17579;42.690;2.586;2023-05-23T05:46:26;96999.41;;;19.10;58.28
30873;BME280;17579;42.690;2.586;2023-05-23T05:48:57;97008.09;;;19.12;58.21
30873;BME280;17579;42.690;2.586;2023-05-23T05:51:25;97005.00;;;19.15;58.01
30873;BME280;17579;42.690;2.586;2023-05-23T05:54:02;97002.31;;;19.22;57.75
30873;BME280;17579;42.690;2.586;2023-05-23T05:56:28;97006.88;;;19.28;57.82
30873;BME280;17579;42.690;2.586;2023-05-23T05:59:04;97005.22;;;19.34;57.53
30873;BME280;17579;42.690;2.586;2023-05-23T06:01:41;97004.59;;;19.38;57.54
30873;BME280;17579;42.690;2.586;2023-05-23T06:04:09;97005.19;;;19.41;57.23
30873;BME280;17579;42.690;2.586;2023-05-23T06:06:38;97004.78;;;19.44;57.40
30873;BME280;17579;42.690;2.586;2023-05-23T06:09:17;97009.72;;;19.53;57.21
30873;BME280;17579;42.690;2.586;2023-05-23T06:11:48;97004.34;;;19.60;57.19
30873;BME280;17579;42.690;2.586;2023-05-23T06:14:14;97008.44;;;19.69;56.87
30873;BME280;17579;42.690;2.586;2023-05-23T06:16:40;97009.28;;;19.70;56.63
30873;BME280;17579;42.690;2.586;2023-05-23T06:19:06;97019.59;;;19.73;56.72
30873;BME280;17579;42.690;2.586;2023-05-23T06:21:32;97016.50;;;19.76;56.66
30873;BME280;17579;42.690;2.586;2023-05-23T06:26:49;97019.78;;;19.78;56.29
30873;BME280;17579;42.690;2.586;2023-05-23T06:29:15;97023.13;;;19.80;56.51
30873;BME280;17579;42.690;2.586;2023-05-23T06:31:43;97023.53;;;19.84;56.28
30873;BME280;17579;42.690;2.586;2023-05-23T06:34:11;97021.22;;;20.01;56.11
30873;BME280;17579;42.690;2.586;2023-05-23T06:36:37;97024.78;;;20.40;55.69
30873;BME280;17579;42.690;2.586;2023-05-23T06:39:11;97019.78;;;20.96;54.75
30873;BME280;17579;42.690;2.586;2023-05-23T06:41:41;97030.56;;;21.21;53.88
30873;BME280;17579;42.690;2.586;2023-05-23T06:44:07;97032.28;;;21.08;53.48
30873;BME280;17579;42.690;2.586;2023-05-23T06:46:35;97040.28;;;20.90;53.68
30873;BME280;17579;42.690;2.586;2023-05-23T06:49:11;97035.41;;;20.73;53.81
30873;BME280;17579;42.690;2.586;2023-05-23T06:51:37;97037.31;;;20.59;53.94
30873;BME280;17579;42.690;2.586;2023-05-23T06:54:09;97043.13;;;20.50;54.55
30873;BME280;17579;42.690;2.586;2023-05-23T06:56:35;97041.91;;;20.46;54.50
30873;BME280;17579;42.690;2.586;2023-05-23T06:59:04;97045.03;;;20.42;54.66
30873;BME280;17579;42.690;2.586;2023-05-23T07:01:29;97052.03;;;20.50;54.04
30873;BME280;17579;42.690;2.586;2023-05-23T07:04:01;97054.31;;;20.47;54.36
30873;BME280;17579;42.690;2.586;2023-05-23T07:06:26;97055.09;;;20.60;54.33
30873;BME280;17579;42.690;2.586;2023-05-23T07:08:55;97054.25;;;20.67;54.34
30873;BME280;17579;42.690;2.586;2023-05-23T07:11:21;97055.88;;;20.74;54.31
30873;BME280;17579;42.690;2.586;2023-05-23T07:14:11;97062.47;;;20.79;54.03
30873;BME280;17579;42.690;2.586;2023-05-23T07:16:47;97057.88;;;20.86;53.95
30873;BME280;17579;42.690;2.586;2023-05-23T07:19:36;97055.63;;;20.83;53.96
30873;BME280;17579;42.690;2.586;2023-05-23T07:22:04;97065.53;;;20.89;53.34
30873;BME280;17579;42.690;2.586;2023-05-23T07:24:30;97069.03;;;20.89;53.89
30873;BME280;17579;42.690;2.586;2023-05-23T07:26:56;97073.59;;;20.89;53.34
30873;BME280;17579;42.690;2.586;2023-05-23T07:29:22;97075.06;;;20.85;53.47
30873;BME280;17579;42.690;2.586;2023-05-23T07:31:50;97070.13;;;20.82;53.65
30873;BME280;17579;42.690;2.586;2023-05-23T07:34:16;97073.59;;;20.89;53.77
30873;BME280;17579;42.690;2.586;2023-05-23T07:36:45;97072.63;;;21.08;53.79
30873;BME280;17579;42.690;2.586;2023-05-23T07:39:11;97061.25;;;21.38;52.83
30873;BME280;17579;42.690;2.586;2023-05-23T07:42:04;97055.63;;;21.72;53.51
30873;BME280;17579;42.690;2.586;2023-05-23T07:44:29;97061.41;;;21.75;52.00
30873;BME280;17579;42.690;2.586;2023-05-23T07:46:55;97063.19;;;21.56;51.99
30873;BME280;17579;42.690;2.586;2023-05-23T07:49:31;97066.81;;;21.43;51.91
30873;BME280;17579;42.690;2.586;2023-05-23T07:52:17;97072.25;;;21.37;52.10
30873;BME280;17579;42.690;2.586;2023-05-23T07:57:26;97068.56;;;21.31;52.40
30873;BME280;17579;42.690;2.586;2023-05-23T07:59:55;97075.03;;;21.23;52.15
30873;BME280;17579;42.690;2.586;2023-05-23T08:02:21;97074.66;;;21.13;52.08
30873;BME280;17579;42.690;2.586;2023-05-23T08:04:52;97077.84;;;21.03;52.69
30873;BME280;17579;42.690;2.586;2023-05-23T08:07:21;97074.09;;;21.04;52.38
30873;BME280;17579;42.690;2.586;2023-05-23T08:09:50;97069.78;;;21.03;52.68
30873;BME280;17579;42.690;2.586;2023-05-23T08:15:12;97072.25;;;21.05;52.66
30873;BME280;17579;42.690;2.586;2023-05-23T08:17:40;97075.75;;;21.05;52.64
30873;BME280;17579;42.690;2.586;2023-05-23T08:20:11;97069.56;;;21.05;52.52
30873;BME280;17579;42.690;2.586;2023-05-23T08:22:48;97066.88;;;21.05;52.56
30873;BME280;17579;42.690;2.586;2023-05-23T08:25:17;97057.53;;;21.07;52.64
30873;BME280;17579;42.690;2.586;2023-05-23T08:27:45;97065.81;;;21.06;52.66
30873;BME280;17579;42.690;2.586;2023-05-23T08:30:11;97069.56;;;21.05;52.32
30873;BME280;17579;42.690;2.586;2023-05-23T08:32:46;97067.09;;;21.03;52.67
30873;BME280;17579;42.690;2.586;2023-05-23T08:35:22;97069.13;;;21.08;52.49
30873;BME280;17579;42.690;2.586;2023-05-23T08:37:53;97072.41;;;21.10;52.59
30873;BME280;17579;42.690;2.586;2023-05-23T08:40:23;97076.94;;;21.16;52.23
30873;BME280;17579;42.690;2.586;2023-05-23T08:43:10;97074.06;;;21.11;52.65
30873;BME280;17579;42.690;2.586;2023-05-23T08:45:39;97066.13;;;21.23;52.43
30873;BME280;17579;42.690;2.586;2023-05-23T08:48:12;97068.34;;;21.33;52.14
30873;BME280;17579;42.690;2.586;2023-05-23T08:50:50;97070.03;;;22.03;52.51
30873;BME280;17579;42.690;2.586;2023-05-23T08:53:20;97067.88;;;22.30;51.43
30873;BME280;17579;42.690;2.586;2023-05-23T08:55:54;97064.22;;;22.24;50.91
30873;BME280;17579;42.690;2.586;2023-05-23T08:58:23;97062.03;;;22.14;51.04
30873;BME280;17579;42.690;2.586;2023-05-23T09:03:48;97064.78;;;22.08;50.50
30873;BME280;17579;42.690;2.586;2023-05-23T09:06:22;97066.28;;;22.04;50.29
30873;BME280;17579;42.690;2.586;2023-05-23T09:08:50;97066.50;;;22.02;50.43
30873;BME280;17579;42.690;2.586;2023-05-23T09:11:19;97063.81;;;22.02;50.47
30873;BME280;17579;42.690;2.586;2023-05-23T09:13:52;97065.47;;;22.03;49.88
30873;BME280;17579;42.690;2.586;2023-05-23T09:16:20;97065.09;;;22.00;50.33
30873;BME280;17579;42.690;2.586;2023-05-23T09:18:48;97067.94;;;22.05;50.43
30873;BME280;17579;42.690;2.586;2023-05-23T09:21:14;97067.25;;;22.09;50.58
30873;BME280;17579;42.690;2.586;2023-05-23T09:23:40;97068.00;;;22.17;49.99
30873;BME280;17579;42.690;2.586;2023-05-23T09:26:10;97079.13;;;22.27;50.26
30873;BME280;17579;42.690;2.586;2023-05-23T09:28:40;97066.19;;;22.54;49.54
30873;BME280;17579;42.690;2.586;2023-05-23T09:31:37;97059.81;;;22.97;50.32
30873;BME280;17579;42.690;2.586;2023-05-23T09:34:05;97066.16;;;23.33;48.08
30873;BME280;17579;42.690;2.586;2023-05-23T09:36:40;97056.50;;;23.26;47.78
30873;BME280;17579;42.690;2.586;2023-05-23T09:39:19;97064.34;;;23.15;47.35
30873;BME280;17579;42.690;2.586;2023-05-23T09:41:48;97068.69;;;23.16;47.44
30873;BME280;17579;42.690;2.586;2023-05-23T09:44:21;97075.34;;;23.14;48.23
30873;BME280;17579;42.690;2.586;2023-05-23T09:46:50;97057.81;;;23.23;47.48
30873;BME280;17579;42.690;2.586;2023-05-23T09:49:18;97062.28;;;23.41;47.41
30873;BME280;17579;42.690;2.586;2023-05-23T09:51:55;97066.88;;;23.64;47.17
30873;BME280;17579;42.690;2.586;2023-05-23T09:54:21;97059.66;;;23.89;46.43
30873;BME280;17579;42.690;2.586;2023-05-23T09:56:52;97055.44;;;23.93;45.37
30873;BME280;17579;42.690;2.586;2023-05-23T09:59:21;97057.88;;;23.82;46.13
30873;BME280;17579;42.690;2.586;2023-05-23T10:01:55;97059.41;;;23.66;46.02
30873;BME280;17579;42.690;2.586;2023-05-23T10:04:22;97059.16;;;23.68;45.33
30873;BME280;17579;42.690;2.586;2023-05-23T10:07:01;97054.81;;;23.67;45.41
30873;BME280;17579;42.690;2.586;2023-05-23T10:09:32;97048.00;;;23.64;45.40
30873;BME280;17579;42.690;2.586;2023-05-23T10:14:47;97047.53;;;23.67;46.18
30873;BME280;17579;42.690;2.586;2023-05-23T10:17:20;97055.50;;;23.74;45.45
30873;BME280;17579;42.690;2.586;2023-05-23T10:19:58;97053.06;;;23.73;45.15
30873;BME280;17579;42.690;2.586;2023-05-23T10:22:25;97049.66;;;23.89;45.76
30873;BME280;17579;42.690;2.586;2023-05-23T10:25:05;97055.41;;;24.16;45.82
30873;BME280;17579;42.690;2.586;2023-05-23T10:27:33;97057.94;;;24.47;45.14
30873;BME280;17579;42.690;2.586;2023-05-23T10:33:05;97051.50;;;24.77;44.22
30873;BME280;17579;42.690;2.586;2023-05-23T10:35:56;97042.78;;;24.86;44.53
30873;BME280;17579;42.690;2.586;2023-05-23T10:38:33;97046.75;;;25.13;43.74
30873;BME280;17579;42.690;2.586;2023-05-23T10:41:09;97046.47;;;25.26;44.17
30873;BME280;17579;42.690;2.586;2023-05-23T10:43:51;97039.50;;;25.30;42.90
30873;BME280;17579;42.690;2.586;2023-05-23T10:49:10;97037.84;;;25.29;42.24
30873;BME280;17579;42.690;2.586;2023-05-23T10:51:40;97037.19;;;25.22;42.78
30873;BME280;17579;42.690;2.586;2023-05-23T10:54:18;97037.28;;;25.27;41.63
30873;BME280;17579;42.690;2.586;2023-05-23T10:57:02;97039.91;;;25.22;42.26
30873;BME280;17579;42.690;2.586;2023-05-23T10:59:36;97029.59;;;25.36;42.73
30873;BME280;17579;42.690;2.586;2023-05-23T11:02:07;97037.50;;;25.54;42.55
30873;BME280;17579;42.690;2.586;2023-05-23T11:04:43;97025.66;;;25.61;42.49
30873;BME280;17579;42.690;2.586;2023-05-23T11:07:38;97025.97;;;25.47;43.02
30873;BME280;17579;42.690;2.586;2023-05-23T11:13:04;97017.94;;;25.52;42.56
30873;BME280;17579;42.690;2.586;2023-05-23T11:15:50;97013.44;;;25.58;42.32
30873;BME280;17579;42.690;2.586;2023-05-23T11:18:21;97014.41;;;25.69;41.50
30873;BME280;17579;42.690;2.586;2023-05-23T11:21:00;97001.81;;;25.80;41.74
30873;BME280;17579;42.690;2.586;2023-05-23T11:23:39;97005.69;;;25.84;41.67
30873;BME280;17579;42.690;2.586;2023-05-23T11:31:35;97002.34;;;25.99;41.35
30873;BME280;17579;42.690;2.586;2023-05-23T11:34:01;96997.78;;;25.99;40.49
30873;BME280;17579;42.690;2.586;2023-05-23T11:36:33;96994.03;;;25.83;40.35
30873;BME280;17579;42.690;2.586;2023-05-23T11:39:08;97002.88;;;25.79;40.61
30873;BME280;17579;42.690;2.586;2023-05-23T11:44:24;96988.50;;;25.95;40.84
30873;BME280;17579;42.690;2.586;2023-05-23T11:49:30;96990.97;;;26.19;40.48
30873;BME280;17579;42.690;2.586;2023-05-23T11:52:04;96980.66;;;26.38;39.99
30873;BME280;17579;42.690;2.586;2023-05-23T11:54:41;96985.50;;;26.58;39.62
30873;BME280;17579;42.690;2.586;2023-05-23T11:57:10;96981.38;;;26.77;39.15
30873;BME280;17579;42.690;2.586;2023-05-23T11:59:41;96978.81;;;26.93;38.75
30873;BME280;17579;42.690;2.586;2023-05-23T12:02:13;96974.34;;;27.09;37.59
30873;BME280;17579;42.690;2.586;2023-05-23T12:04:44;96963.34;;;27.26;37.59
30873;BME280;17579;42.690;2.586;2023-05-23T12:07:10;96965.16;;;27.47;37.09
30873;BME280;17579;42.690;2.586;2023-05-23T12:09:40;96970.16;;;27.28;37.42
30873;BME280;17579;42.690;2.586;2023-05-23T12:12:14;96973.84;;;27.49;36.85
30873;BME280;17579;42.690;2.586;2023-05-23T12:14:41;96973.06;;;27.97;36.23
30873;BME280;17579;42.690;2.586;2023-05-23T12:17:21;96969.16;;;28.35;36.40
30873;BME280;17579;42.690;2.586;2023-05-23T12:19:54;96963.47;;;28.32;35.45
30873;BME280;17579;42.690;2.586;2023-05-23T12:22:36;96961.75;;;28.15;36.00
30873;BME280;17579;42.690;2.586;2023-05-23T12:28:12;96955.13;;;27.16;36.92
30873;BME280;17579;42.690;2.586;2023-05-23T12:30:42;96946.69;;;26.79;37.09
30873;BME280;17579;42.690;2.586;2023-05-23T12:33:24;96935.69;;;26.69;37.41
30873;BME280;17579;42.690;2.586;2023-05-23T12:36:04;96932.78;;;27.36;36.86
30873;BME280;17579;42.690;2.586;2023-05-23T12:38:35;96927.50;;;27.61;36.31
30873;BME280;17579;42.690;2.586;2023-05-23T12:41:06;96920.31;;;27.45;36.23
30873;BME280;17579;42.690;2.586;2023-05-23T12:43:36;96924.09;;;27.06;36.47
30873;BME280;17579;42.690;2.586;2023-05-23T12:46:12;96923.72;;;26.65;36.28
30873;BME280;17579;42.690;2.586;2023-05-23T12:48:53;96923.66;;;26.33;37.10
30873;BME280;17579;42.690;2.586;2023-05-23T12:51:28;96920.72;;;26.12;37.37
30873;BME280;17579;42.690;2.586;2023-05-23T12:53:56;96923.94;;;26.09;37.59
30873;BME280;17579;42.690;2.586;2023-05-23T12:56:25;96931.59;;;25.95;38.23
30873;BME280;17579;42.690;2.586;2023-05-23T12:58:51;96942.06;;;25.86;38.29
30873;BME280;17579;42.690;2.586;2023-05-23T13:01:28;96931.91;;;25.76;39.69
30873;BME280;17579;42.690;2.586;2023-05-23T13:04:14;96933.50;;;25.55;40.37
30873;BME280;17579;42.690;2.586;2023-05-23T13:06:43;96938.38;;;25.36;43.01
30873;BME280;17579;42.690;2.586;2023-05-23T13:09:11;96940.75;;;25.16;44.31
30873;BME280;17579;42.690;2.586;2023-05-23T13:11:39;96945.09;;;25.00;45.70
30873;BME280;17579;42.690;2.586;2023-05-23T13:14:11;96944.22;;;24.65;46.51
30873;BME280;17579;42.690;2.586;2023-05-23T13:16:40;96937.00;;;24.42;48.33
30873;BME280;17579;42.690;2.586;2023-05-23T13:19:08;96934.09;;;24.32;49.24
30873;BME280;17579;42.690;2.586;2023-05-23T13:21:42;96922.97;;;24.28;47.91
30873;BME280;17579;42.690;2.586;2023-05-23T13:24:13;96911.53;;;25.18;49.76
30873;BME280;17579;42.690;2.586;2023-05-23T13:26:42;96910.88;;;26.06;48.56
30873;BME280;17579;42.690;2.586;2023-05-23T13:29:10;96912.22;;;26.80;48.19
30873;BME280;17579;42.690;2.586;2023-05-23T13:31:36;96909.47;;;27.45;47.25
30873;BME280;17579;42.690;2.586;2023-05-23T13:34:05;96913.22;;;27.87;45.20
30873;BME280;17579;42.690;2.586;2023-05-23T13:36:44;96904.16;;;28.29;43.76
30873;BME280;17579;42.690;2.586;2023-05-23T13:39:35;96907.13;;;28.22;43.43
30873;BME280;17579;42.690;2.586;2023-05-23T13:42:03;96892.69;;;28.16;39.94
30873;BME280;17579;42.690;2.586;2023-05-23T13:44:37;96892.19;;;27.66;40.42
30873;BME280;17579;42.690;2.586;2023-05-23T13:49:40;96882.66;;;26.84;41.83
30873;BME280;17579;42.690;2.586;2023-05-23T13:52:16;96873.69;;;26.51;41.63
30873;BME280;17579;42.690;2.586;2023-05-23T13:55:03;96878.84;;;26.25;41.51
30873;BME280;17579;42.690;2.586;2023-05-23T13:57:29;96862.00;;;26.50;41.86
30873;BME280;17579;42.690;2.586;2023-05-23T14:00:21;96865.22;;;26.74;42.05
30873;BME280;17579;42.690;2.586;2023-05-23T14:02:51;96863.41;;;27.23;40.98
30873;BME280;17579;42.690;2.586;2023-05-23T14:05:19;96870.78;;;27.27;39.94
30873;BME280;17579;42.690;2.586;2023-05-23T14:07:47;96868.78;;;27.12;40.35
30873;BME280;17579;42.690;2.586;2023-05-23T14:10:16;96873.63;;;27.10;41.58
30873;BME280;17579;42.690;2.586;2023-05-23T14:12:44;96877.16;;;27.11;41.49
30873;BME280;17579;42.690;2.586;2023-05-23T14:15:10;96878.38;;;27.25;40.13
30873;BME280;17579;42.690;2.586;2023-05-23T14:17:44;96875.41;;;27.27;39.10
30873;BME280;17579;42.690;2.586;2023-05-23T14:20:26;96876.69;;;27.19;40.06